sensor_id;sensor_type;location;lat;lon;timestamp;noise_LAeq;noise_LA_min;noise_LA_max;noise_LA01;noise_LA95
77134;Laerm;25175;50.140;18.990;2024-02-21T00:00:38;39.25;33.82;52.08;;
77134;Laerm;25175;50.140;18.990;2024-02-21T00:04:29;36.95;33.98;41.09;;
77134;Laerm;25175;50.140;18.990;2024-02-21T00:08:41;36.38;33.95;41.89;;
77134;Laerm;25175;50.140;18.990;2024-02-21T00:12:41;36.44;33.89;42.46;;
77134;Laerm;25175;50.140;18.990;2024-02-21T00:16:08;38.30;34.36;50.84;;
77134;Laerm;25175;50.140;18.990;2024-02-21T00:19:42;36.85;34.17;43.84;;
77134;Laerm;25175;50.140;18.990;2024-02-21T00:23:32;36.38;33.74;42.50;;
77134;Laerm;25175;50.140;18.990;2024-02-21T00:31:04;36.95;34.15;42.17;;
77134;Laerm;25175;50.140;18.990;2024-02-21T00:34:21;37.38;34.46;41.62;;
77134;Laerm;25175;50.140;18.990;2024-02-21T00:38:23;37.49;34.66;43.70;;
77134;Laerm;25175;50.140;18.990;2024-02-21T00:54:11;37.77;34.55;43.82;;
77134;Laerm;25175;50.140;18.990;2024-02-21T00:58:07;37.74;34.53;41.80;;
77134;Laerm;25175;50.140;18.990;2024-02-21T01:01:22;37.56;35.06;42.36;;
77134;Laerm;25175;50.140;18.990;2024-02-21T01:04:45;37.95;35.11;43.75;;
77134;Laerm;25175;50.140;18.990;2024-02-21T01:08:09;37.26;34.61;41.74;;
77134;Laerm;25175;50.140;18.990;2024-02-21T01:15:25;38.60;34.62;52.70;;
77134;Laerm;25175;50.140;18.990;2024-02-21T01:19:11;37.81;34.31;54.98;;
77134;Laerm;25175;50.140;18.990;2024-02-21T01:22:32;37.67;34.53;42.34;;
77134;Laerm;25175;50.140;18.990;2024-02-21T01:33:26;36.55;33.72;40.99;;
77134;Laerm;25175;50.140;18.990;2024-02-21T01:46:44;37.25;33.88;55.22;;
77134;Laerm;25175;50.140;18.990;2024-02-21T01:54:05;38.93;34.16;53.00;;
77134;Laerm;25175;50.140;18.990;2024-02-21T01:57:35;38.61;34.06;51.21;;
77134;Laerm;25175;50.140;18.990;2024-02-21T02:01:13;37.03;33.94;47.21;;
77134;Laerm;25175;50.140;18.990;2024-02-21T02:13:02;35.97;33.41;44.35;;
77134;Laerm;25175;50.140;18.990;2024-02-21T02:16:39;36.12;33.54;43.23;;
77134;Laerm;25175;50.140;18.990;2024-02-21T02:20:52;41.43;33.50;60.12;;
77134;Laerm;25175;50.140;18.990;2024-02-21T02:24:57;36.07;33.61;43.67;;
77134;Laerm;25175;50.140;18.990;2024-02-21T02:28:40;36.07;33.86;48.91;;
77134;Laerm;25175;50.140;18.990;2024-02-21T02:53:10;37.19;33.87;43.72;;
77134;Laerm;25175;50.140;18.990;2024-02-21T02:57:00;36.09;33.69;42.51;;
77134;Laerm;25175;50.140;18.990;2024-02-21T03:00:55;36.27;33.75;43.74;;
77134;Laerm;25175;50.140;18.990;2024-02-21T03:04:22;36.90;34.12;44.04;;
77134;Laerm;25175;50.140;18.990;2024-02-21T03:07:38;36.73;34.24;41.35;;
77134;Laerm;25175;50.140;18.990;2024-02-21T03:10:54;36.69;34.30;41.91;;
77134;Laerm;25175;50.140;18.990;2024-02-21T03:14:16;36.83;34.37;45.85;;
77134;Laerm;25175;50.140;18.990;2024-02-21T03:27:06;37.18;34.35;46.21;;
77134;Laerm;25175;50.140;18.990;2024-02-21T03:30:58;37.42;34.58;41.28;;
77134;Laerm;25175;50.140;18.990;2024-02-21T03:43:43;40.42;35.78;57.07;;
77134;Laerm;25175;50.140;18.990;2024-02-21T03:47:39;39.66;35.59;60.08;;
77134;Laerm;25175;50.140;18.990;2024-02-21T03:51:27;40.69;36.01;51.85;;
77134;Laerm;25175;50.140;18.990;2024-02-21T04:00:15;39.18;35.54;48.16;;
77134;Laerm;25175;50.140;18.990;2024-02-21T04:03:57;39.33;35.74;48.41;;
77134;Laerm;25175;50.140;18.990;2024-02-21T04:07:33;39.36;35.60;46.43;;
77134;Laerm;25175;50.140;18.990;2024-02-21T04:10:40;39.58;36.42;47.42;;
77134;Laerm;25175;50.140;18.990;2024-02-21T04:13:51;38.86;36.36;42.36;;
77134;Laerm;25175;50.140;18.990;2024-02-21T04:18:04;38.86;36.31;43.64;;
77134;Laerm;25175;50.140;18.990;2024-02-21T04:33:42;43.32;36.82;54.13;;
77134;Laerm;25175;50.140;18.990;2024-02-21T04:41:25;45.53;37.54;59.66;;
77134;Laerm;25175;50.140;18.990;2024-02-21T04:44:54;43.66;37.11;57.70;;
77134;Laerm;25175;50.140;18.990;2024-02-21T04:48:11;46.25;37.04;61.92;;
77134;Laerm;25175;50.140;18.990;2024-02-21T04:51:24;45.55;36.20;63.10;;
77134;Laerm;25175;50.140;18.990;2024-02-21T04:54:44;41.70;36.84;54.79;;
77134;Laerm;25175;50.140;18.990;2024-02-21T04:58:12;41.91;36.87;54.68;;
77134;Laerm;25175;50.140;18.990;2024-02-21T05:01:48;44.48;36.99;57.59;;
77134;Laerm;25175;50.140;18.990;2024-02-21T05:04:57;42.24;37.38;53.05;;
77134;Laerm;25175;50.140;18.990;2024-02-21T05:08:16;43.54;36.43;57.09;;
77134;Laerm;25175;50.140;18.990;2024-02-21T05:11:33;40.77;36.60;54.87;;
77134;Laerm;25175;50.140;18.990;2024-02-21T05:14:45;44.70;37.78;56.50;;
77134;Laerm;25175;50.140;18.990;2024-02-21T05:18:07;42.58;37.58;64.69;;
77134;Laerm;25175;50.140;18.990;2024-02-21T05:25:30;44.26;37.85;57.29;;
77134;Laerm;25175;50.140;18.990;2024-02-21T05:28:42;44.02;37.70;55.96;;
77134;Laerm;25175;50.140;18.990;2024-02-21T05:32:03;47.13;38.52;58.94;;
77134;Laerm;25175;50.140;18.990;2024-02-21T05:35:29;46.59;38.71;57.16;;
77134;Laerm;25175;50.140;18.990;2024-02-21T05:38:57;45.56;38.45;56.45;;
77134;Laerm;25175;50.140;18.990;2024-02-21T05:42:30;47.05;38.90;59.03;;
77134;Laerm;25175;50.140;18.990;2024-02-21T05:46:12;45.90;38.86;57.49;;
77134;Laerm;25175;50.140;18.990;2024-02-21T05:49:36;47.83;39.10;60.57;;
77134;Laerm;25175;50.140;18.990;2024-02-21T05:52:43;46.45;39.31;59.53;;
77134;Laerm;25175;50.140;18.990;2024-02-21T05:56:27;46.49;39.60;60.95;;
77134;Laerm;25175;50.140;18.990;2024-02-21T05:59:35;48.72;39.59;62.33;;
77134;Laerm;25175;50.140;18.990;2024-02-21T06:02:44;49.00;39.81;67.04;;
77134;Laerm;25175;50.140;18.990;2024-02-21T06:06:01;46.44;39.23;59.21;;
77134;Laerm;25175;50.140;18.990;2024-02-21T06:09:13;47.35;39.58;58.87;;
77134;Laerm;25175;50.140;18.990;2024-02-21T06:12:46;45.92;39.16;58.95;;
77134;Laerm;25175;50.140;18.990;2024-02-21T06:16:00;46.64;39.47;61.57;;
77134;Laerm;25175;50.140;18.990;2024-02-21T06:19:25;45.32;39.63;56.72;;
77134;Laerm;25175;50.140;18.990;2024-02-21T06:23:10;48.26;39.22;63.12;;
77134;Laerm;25175;50.140;18.990;2024-02-21T06:32:07;60.16;39.12;86.35;;
77134;Laerm;25175;50.140;18.990;2024-02-21T06:35:44;47.45;39.52;59.44;;
77134;Laerm;25175;50.140;18.990;2024-02-21T06:39:10;48.56;38.94;60.69;;
77134;Laerm;25175;50.140;18.990;2024-02-21T06:42:35;48.80;39.70;59.27;;
77134;Laerm;25175;50.140;18.990;2024-02-21T06:45:59;49.16;40.42;60.78;;
77134;Laerm;25175;50.140;18.990;2024-02-21T06:49:36;49.39;39.45;60.10;;
77134;Laerm;25175;50.140;18.990;2024-02-21T06:52:49;49.05;39.66;59.75;;
77134;Laerm;25175;50.140;18.990;2024-02-21T06:56:42;48.73;40.43;59.22;;
77134;Laerm;25175;50.140;18.990;2024-02-21T07:00:27;48.34;39.02;62.02;;
77134;Laerm;25175;50.140;18.990;2024-02-21T07:08:14;46.80;37.89;58.78;;
77134;Laerm;25175;50.140;18.990;2024-02-21T07:11:38;45.91;38.42;59.07;;
77134;Laerm;25175;50.140;18.990;2024-02-21T07:14:52;45.02;38.30;57.07;;
77134;Laerm;25175;50.140;18.990;2024-02-21T07:18:08;47.44;38.65;57.48;;
77134;Laerm;25175;50.140;18.990;2024-02-21T07:21:17;47.85;38.62;57.98;;
77134;Laerm;25175;50.140;18.990;2024-02-21T07:28:23;53.07;38.10;65.70;;
77134;Laerm;25175;50.140;18.990;2024-02-21T07:31:40;47.50;38.22;64.30;;
77134;Laerm;25175;50.140;18.990;2024-02-21T07:34:55;48.46;37.85;67.92;;
77134;Laerm;25175;50.140;18.990;2024-02-21T07:38:31;46.48;37.66;64.61;;
77134;Laerm;25175;50.140;18.990;2024-02-21T07:42:11;46.83;37.40;59.69;;
77134;Laerm;25175;50.140;18.990;2024-02-21T07:45:20;46.70;37.45;61.77;;
77134;Laerm;25175;50.140;18.990;2024-02-21T07:48:33;47.48;38.51;60.04;;
77134;Laerm;25175;50.140;18.990;2024-02-21T07:51:41;47.81;38.81;60.90;;
77134;Laerm;25175;50.140;18.990;2024-02-21T07:54:52;45.14;38.08;58.45;;
77134;Laerm;25175;50.140;18.990;2024-02-21T07:58:21;47.29;38.07;58.29;;
77134;Laerm;25175;50.140;18.990;2024-02-21T08:02:20;47.23;37.49;61.19;;
77134;Laerm;25175;50.140;18.990;2024-02-21T08:06:13;46.68;37.60;57.39;;
77134;Laerm;25175;50.140;18.990;2024-02-21T08:14:14;48.47;38.40;61.70;;
77134;Laerm;25175;50.140;18.990;2024-02-21T08:17:52;45.57;37.79;60.32;;
77134;Laerm;25175;50.140;18.990;2024-02-21T08:21:29;44.94;38.52;59.64;;
77134;Laerm;25175;50.140;18.990;2024-02-21T08:24:49;46.09;37.35;64.24;;
77134;Laerm;25175;50.140;18.990;2024-02-21T08:28:53;43.19;37.41;55.18;;
77134;Laerm;25175;50.140;18.990;2024-02-21T08:32:05;47.02;37.63;57.82;;
77134;Laerm;25175;50.140;18.990;2024-02-21T08:35:33;43.26;37.72;59.05;;
77134;Laerm;25175;50.140;18.990;2024-02-21T08:42:49;45.62;37.08;59.82;;
77134;Laerm;25175;50.140;18.990;2024-02-21T08:46:41;41.79;36.79;57.61;;
77134;Laerm;25175;50.140;18.990;2024-02-21T08:50:37;47.39;36.40;61.03;;
77134;Laerm;25175;50.140;18.990;2024-02-21T08:53:52;45.37;37.12;66.53;;
77134;Laerm;25175;50.140;18.990;2024-02-21T08:57:10;45.31;36.89;60.03;;
77134;Laerm;25175;50.140;18.990;2024-02-21T09:00:33;44.64;37.19;55.25;;
77134;Laerm;25175;50.140;18.990;2024-02-21T09:03:40;46.35;37.00;64.14;;
77134;Laerm;25175;50.140;18.990;2024-02-21T09:06:46;43.88;36.80;58.34;;
77134;Laerm;25175;50.140;18.990;2024-02-21T09:10:02;44.10;36.73;57.17;;
77134;Laerm;25175;50.140;18.990;2024-02-21T09:18:07;44.78;36.99;57.70;;
77134;Laerm;25175;50.140;18.990;2024-02-21T09:21:31;48.35;37.54;63.61;;
77134;Laerm;25175;50.140;18.990;2024-02-21T09:25:05;44.62;37.27;59.03;;
77134;Laerm;25175;50.140;18.990;2024-02-21T09:28:18;43.71;36.72;56.33;;
77134;Laerm;25175;50.140;18.990;2024-02-21T09:31:52;45.07;36.77;60.36;;
77134;Laerm;25175;50.140;18.990;2024-02-21T09:35:52;44.94;36.54;58.08;;
77134;Laerm;25175;50.140;18.990;2024-02-21T09:39:32;47.08;37.32;63.40;;
77134;Laerm;25175;50.140;18.990;2024-02-21T09:42:42;47.51;37.69;65.86;;
77134;Laerm;25175;50.140;18.990;2024-02-21T09:57:42;48.40;37.62;66.06;;
77134;Laerm;25175;50.140;18.990;2024-02-21T10:01:25;49.28;38.29;70.80;;
77134;Laerm;25175;50.140;18.990;2024-02-21T10:04:45;56.69;38.68;76.87;;
77134;Laerm;25175;50.140;18.990;2024-02-21T10:08:20;45.67;37.30;63.48;;
77134;Laerm;25175;50.140;18.990;2024-02-21T10:12:07;44.89;37.48;56.84;;
77134;Laerm;25175;50.140;18.990;2024-02-21T10:16:01;46.21;36.64;58.67;;
77134;Laerm;25175;50.140;18.990;2024-02-21T10:19:17;47.81;36.70;71.76;;
77134;Laerm;25175;50.140;18.990;2024-02-21T10:22:25;45.82;36.93;64.57;;
77134;Laerm;25175;50.140;18.990;2024-02-21T10:26:04;43.93;37.12;63.02;;
77134;Laerm;25175;50.140;18.990;2024-02-21T10:29:49;49.53;35.90;75.21;;
77134;Laerm;25175;50.140;18.990;2024-02-21T10:33:12;46.29;36.94;64.79;;
77134;Laerm;25175;50.140;18.990;2024-02-21T10:36:38;42.74;37.37;55.37;;
77134;Laerm;25175;50.140;18.990;2024-02-21T10:40:11;46.47;37.62;62.48;;
77134;Laerm;25175;50.140;18.990;2024-02-21T10:43:54;43.55;36.81;57.63;;
77134;Laerm;25175;50.140;18.990;2024-02-21T10:47:12;44.23;37.33;59.43;;
77134;Laerm;25175;50.140;18.990;2024-02-21T10:51:01;47.44;37.87;67.45;;
77134;Laerm;25175;50.140;18.990;2024-02-21T10:58:15;46.29;38.20;61.88;;
77134;Laerm;25175;50.140;18.990;2024-02-21T11:01:24;47.81;37.94;63.89;;
77134;Laerm;25175;50.140;18.990;2024-02-21T11:04:48;47.70;36.94;67.77;;
77134;Laerm;25175;50.140;18.990;2024-02-21T11:08:44;45.66;38.01;59.44;;
77134;Laerm;25175;50.140;18.990;2024-02-21T11:12:07;46.11;36.93;63.70;;
77134;Laerm;25175;50.140;18.990;2024-02-21T11:15:50;47.39;36.41;73.35;;
77134;Laerm;25175;50.140;18.990;2024-02-21T11:19:51;48.04;36.72;66.71;;
77134;Laerm;25175;50.140;18.990;2024-02-21T11:23:57;45.58;37.48;64.93;;
77134;Laerm;25175;50.140;18.990;2024-02-21T11:27:16;48.77;37.71;71.10;;
77134;Laerm;25175;50.140;18.990;2024-02-21T11:30:30;48.27;38.34;66.87;;
77134;Laerm;25175;50.140;18.990;2024-02-21T11:33:52;48.06;38.62;70.65;;
77134;Laerm;25175;50.140;18.990;2024-02-21T11:37:14;44.56;37.78;58.38;;
77134;Laerm;25175;50.140;18.990;2024-02-21T11:42:07;46.39;37.64;64.56;;
77134;Laerm;25175;50.140;18.990;2024-02-21T11:45:26;45.80;37.68;60.95;;
77134;Laerm;25175;50.140;18.990;2024-02-21T11:48:33;44.31;37.49;58.22;;
77134;Laerm;25175;50.140;18.990;2024-02-21T11:51:40;46.30;37.88;62.01;;
77134;Laerm;25175;50.140;18.990;2024-02-21T11:55:29;46.98;38.11;64.39;;
77134;Laerm;25175;50.140;18.990;2024-02-21T12:02:50;47.49;37.75;66.41;;
77134;Laerm;25175;50.140;18.990;2024-02-21T12:06:10;53.52;38.54;79.64;;
77134;Laerm;25175;50.140;18.990;2024-02-21T12:09:59;45.90;38.00;67.59;;
77134;Laerm;25175;50.140;18.990;2024-02-21T12:13:31;51.24;36.42;76.84;;
77134;Laerm;25175;50.140;18.990;2024-02-21T12:17:11;46.76;37.65;67.97;;
77134;Laerm;25175;50.140;18.990;2024-02-21T12:21:04;47.38;38.55;61.18;;
77134;Laerm;25175;50.140;18.990;2024-02-21T12:24:23;46.85;38.04;58.66;;
77134;Laerm;25175;50.140;18.990;2024-02-21T12:27:29;50.75;37.96;73.48;;
77134;Laerm;25175;50.140;18.990;2024-02-21T12:30:43;44.51;36.96;61.33;;
77134;Laerm;25175;50.140;18.990;2024-02-21T12:38:06;49.93;39.18;70.98;;
77134;Laerm;25175;50.140;18.990;2024-02-21T12:41:13;56.12;38.95;74.26;;
77134;Laerm;25175;50.140;18.990;2024-02-21T12:45:17;47.82;38.53;69.47;;
77134;Laerm;25175;50.140;18.990;2024-02-21T12:48:56;52.55;39.23;76.54;;
77134;Laerm;25175;50.140;18.990;2024-02-21T12:52:14;46.82;38.51;65.26;;
77134;Laerm;25175;50.140;18.990;2024-02-21T12:55:27;46.90;38.54;59.55;;
77134;Laerm;25175;50.140;18.990;2024-02-21T12:59:19;46.57;37.40;58.02;;
77134;Laerm;25175;50.140;18.990;2024-02-21T13:02:34;45.69;37.65;59.87;;
77134;Laerm;25175;50.140;18.990;2024-02-21T13:06:07;47.74;37.65;60.36;;
77134;Laerm;25175;50.140;18.990;2024-02-21T13:09:21;46.94;37.57;59.68;;
77134;Laerm;25175;50.140;18.990;2024-02-21T13:12:29;45.61;36.84;59.51;;
77134;Laerm;25175;50.140;18.990;2024-02-21T13:15:45;49.13;37.98;63.48;;
77134;Laerm;25175;50.140;18.990;2024-02-21T13:18:55;51.08;38.91;74.10;;
77134;Laerm;25175;50.140;18.990;2024-02-21T13:22:50;47.35;37.74;62.76;;
77134;Laerm;25175;50.140;18.990;2024-02-21T13:26:27;47.49;38.12;66.27;;
77134;Laerm;25175;50.140;18.990;2024-02-21T13:29:50;47.87;38.78;60.76;;
77134;Laerm;25175;50.140;18.990;2024-02-21T13:33:25;47.51;37.70;64.97;;
77134;Laerm;25175;50.140;18.990;2024-02-21T13:36:43;45.68;38.56;57.20;;
77134;Laerm;25175;50.140;18.990;2024-02-21T13:39:50;45.97;38.14;60.30;;
77134;Laerm;25175;50.140;18.990;2024-02-21T13:43:25;46.23;39.83;63.24;;
77134;Laerm;25175;50.140;18.990;2024-02-21T13:50:53;46.95;37.87;60.50;;
77134;Laerm;25175;50.140;18.990;2024-02-21T13:54:15;47.95;39.20;61.05;;
77134;Laerm;25175;50.140;18.990;2024-02-21T13:57:26;49.18;39.89;62.02;;
77134;Laerm;25175;50.140;18.990;2024-02-21T14:04:31;48.66;39.61;60.95;;
77134;Laerm;25175;50.140;18.990;2024-02-21T14:07:54;47.05;38.77;58.32;;
77134;Laerm;25175;50.140;18.990;2024-02-21T14:11:05;48.58;38.58;61.45;;
77134;Laerm;25175;50.140;18.990;2024-02-21T14:14:14;49.16;39.51;65.45;;
77134;Laerm;25175;50.140;18.990;2024-02-21T14:17:23;49.62;40.22;63.75;;
77134;Laerm;25175;50.140;18.990;2024-02-21T14:20:41;48.92;39.33;60.46;;
77134;Laerm;25175;50.140;18.990;2024-02-21T14:23:53;49.61;39.94;61.77;;
77134;Laerm;25175;50.140;18.990;2024-02-21T14:26:59;50.49;40.17;63.05;;
77134;Laerm;25175;50.140;18.990;2024-02-21T14:30:10;50.08;39.38;64.71;;
77134;Laerm;25175;50.140;18.990;2024-02-21T14:33:27;48.92;39.20;71.22;;
77134;Laerm;25175;50.140;18.990;2024-02-21T14:37:18;49.26;39.71;70.37;;
77134;Laerm;25175;50.140;18.990;2024-02-21T14:40:31;48.14;39.43;60.66;;
77134;Laerm;25175;50.140;18.990;2024-02-21T14:43:45;50.00;39.55;63.56;;
77134;Laerm;25175;50.140;18.990;2024-02-21T14:47:15;48.78;39.09;62.54;;
77134;Laerm;25175;50.140;18.990;2024-02-21T14:50:46;49.60;38.84;69.10;;
77134;Laerm;25175;50.140;18.990;2024-02-21T14:54:03;56.50;39.92;75.36;;
77134;Laerm;25175;50.140;18.990;2024-02-21T14:57:14;58.47;40.61;77.03;;
77134;Laerm;25175;50.140;18.990;2024-02-21T15:00:20;49.26;39.97;67.81;;
77134;Laerm;25175;50.140;18.990;2024-02-21T15:04:02;50.08;40.27;68.39;;
77134;Laerm;25175;50.140;18.990;2024-02-21T15:07:17;50.31;39.88;66.88;;
77134;Laerm;25175;50.140;18.990;2024-02-21T15:10:27;50.48;40.08;68.99;;
77134;Laerm;25175;50.140;18.990;2024-02-21T15:13:36;51.79;38.97;71.58;;
77134;Laerm;25175;50.140;18.990;2024-02-21T15:16:46;54.02;40.24;68.79;;
77134;Laerm;25175;50.140;18.990;2024-02-21T15:20:01;51.91;38.98;66.72;;
77134;Laerm;25175;50.140;18.990;2024-02-21T15:23:19;49.23;38.24;64.79;;
77134;Laerm;25175;50.140;18.990;2024-02-21T15:30:36;48.42;38.52;64.67;;
77134;Laerm;25175;50.140;18.990;2024-02-21T15:34:18;47.59;38.39;58.70;;
77134;Laerm;25175;50.140;18.990;2024-02-21T15:38:09;47.30;39.05;59.24;;
77134;Laerm;25175;50.140;18.990;2024-02-21T15:41:32;47.19;38.65;64.42;;
77134;Laerm;25175;50.140;18.990;2024-02-21T15:44:39;46.28;39.50;58.82;;
77134;Laerm;25175;50.140;18.990;2024-02-21T15:51:51;46.33;39.09;60.15;;
77134;Laerm;25175;50.140;18.990;2024-02-21T15:54:58;47.23;38.83;61.13;;
77134;Laerm;25175;50.140;18.990;2024-02-21T15:58:09;49.58;38.89;74.23;;
77134;Laerm;25175;50.140;18.990;2024-02-21T16:01:25;45.69;38.53;56.05;;
77134;Laerm;25175;50.140;18.990;2024-02-21T16:04:43;48.17;38.74;61.39;;
77134;Laerm;25175;50.140;18.990;2024-02-21T16:08:24;46.30;38.82;61.38;;
77134;Laerm;25175;50.140;18.990;2024-02-21T16:11:32;47.24;38.88;59.85;;
77134;Laerm;25175;50.140;18.990;2024-02-21T16:14:42;47.61;38.22;59.00;;
77134;Laerm;25175;50.140;18.990;2024-02-21T16:17:50;46.43;38.40;58.47;;
77134;Laerm;25175;50.140;18.990;2024-02-21T16:21:01;45.62;38.07;61.96;;
77134;Laerm;25175;50.140;18.990;2024-02-21T16:24:09;45.18;37.97;62.45;;
77134;Laerm;25175;50.140;18.990;2024-02-21T16:27:51;48.92;38.28;70.69;;
77134;Laerm;25175;50.140;18.990;2024-02-21T16:30:58;47.17;39.04;64.02;;
77134;Laerm;25175;50.140;18.990;2024-02-21T16:34:04;45.83;38.55;63.76;;
77134;Laerm;25175;50.140;18.990;2024-02-21T16:37:55;46.32;38.88;59.67;;
77134;Laerm;25175;50.140;18.990;2024-02-21T16:41:04;48.24;39.03;60.90;;
77134;Laerm;25175;50.140;18.990;2024-02-21T16:44:22;46.56;37.98;61.39;;
77134;Laerm;25175;50.140;18.990;2024-02-21T16:47:28;46.24;39.44;60.95;;
77134;Laerm;25175;50.140;18.990;2024-02-21T16:50:55;45.80;37.63;60.64;;
77134;Laerm;25175;50.140;18.990;2024-02-21T16:54:20;47.69;37.48;61.83;;
77134;Laerm;25175;50.140;18.990;2024-02-21T16:57:34;46.01;38.14;60.58;;
77134;Laerm;25175;50.140;18.990;2024-02-21T17:00:41;47.93;37.73;68.18;;
77134;Laerm;25175;50.140;18.990;2024-02-21T17:03:55;45.70;37.48;62.94;;
77134;Laerm;25175;50.140;18.990;2024-02-21T17:07:10;47.58;38.47;60.69;;
77134;Laerm;25175;50.140;18.990;2024-02-21T17:10:53;45.85;38.70;62.78;;
77134;Laerm;25175;50.140;18.990;2024-02-21T17:14:03;44.40;38.49;54.84;;
77134;Laerm;25175;50.140;18.990;2024-02-21T17:18:28;45.51;38.41;61.22;;
77134;Laerm;25175;50.140;18.990;2024-02-21T17:22:00;45.73;38.54;56.66;;
77134;Laerm;25175;50.140;18.990;2024-02-21T17:25:13;46.32;38.58;58.24;;
77134;Laerm;25175;50.140;18.990;2024-02-21T17:29:14;47.89;39.38;68.57;;
77134;Laerm;25175;50.140;18.990;2024-02-21T17:33:15;47.36;38.23;66.99;;
77134;Laerm;25175;50.140;18.990;2024-02-21T17:36:39;46.34;39.07;57.51;;
77134;Laerm;25175;50.140;18.990;2024-02-21T17:44:21;45.90;38.19;68.03;;
77134;Laerm;25175;50.140;18.990;2024-02-21T17:47:45;46.28;38.03;65.26;;
77134;Laerm;25175;50.140;18.990;2024-02-21T17:50:55;46.34;38.34;57.30;;
77134;Laerm;25175;50.140;18.990;2024-02-21T17:54:35;45.36;38.34;59.28;;
77134;Laerm;25175;50.140;18.990;2024-02-21T17:58:04;45.11;38.48;59.12;;
77134;Laerm;25175;50.140;18.990;2024-02-21T18:01:17;44.50;38.07;56.00;;
77134;Laerm;25175;50.140;18.990;2024-02-21T18:04:45;44.97;38.23;59.36;;
77134;Laerm;25175;50.140;18.990;2024-02-21T18:07:55;45.33;38.37;61.13;;
77134;Laerm;25175;50.140;18.990;2024-02-21T18:11:16;47.83;38.44;61.24;;
77134;Laerm;25175;50.140;18.990;2024-02-21T18:18:50;50.35;38.81;66.36;;
77134;Laerm;25175;50.140;18.990;2024-02-21T18:30:01;44.60;38.78;62.36;;
77134;Laerm;25175;50.140;18.990;2024-02-21T18:34:08;46.10;37.82;57.74;;
77134;Laerm;25175;50.140;18.990;2024-02-21T18:37:16;45.94;38.43;60.87;;
77134;Laerm;25175;50.140;18.990;2024-02-21T18:40:32;45.55;38.09;57.03;;
77134;Laerm;25175;50.140;18.990;2024-02-21T18:43:39;47.01;38.40;63.91;;
77134;Laerm;25175;50.140;18.990;2024-02-21T18:46:48;45.09;38.09;57.39;;
77134;Laerm;25175;50.140;18.990;2024-02-21T18:50:28;44.38;38.00;55.95;;
77134;Laerm;25175;50.140;18.990;2024-02-21T18:54:09;45.42;38.83;60.24;;
77134;Laerm;25175;50.140;18.990;2024-02-21T18:57:19;46.06;38.78;60.40;;
77134;Laerm;25175;50.140;18.990;2024-02-21T19:00:32;45.96;38.75;60.48;;
77134;Laerm;25175;50.140;18.990;2024-02-21T19:03:51;46.52;38.44;57.86;;
77134;Laerm;25175;50.140;18.990;2024-02-21T19:11:21;45.29;38.63;60.07;;
77134;Laerm;25175;50.140;18.990;2024-02-21T19:14:31;45.76;38.50;63.09;;
77134;Laerm;25175;50.140;18.990;2024-02-21T19:18:15;44.36;38.31;56.32;;
77134;Laerm;25175;50.140;18.990;2024-02-21T19:22:10;44.69;38.52;62.11;;
77134;Laerm;25175;50.140;18.990;2024-02-21T19:29:43;44.42;38.19;62.00;;
77134;Laerm;25175;50.140;18.990;2024-02-21T19:36:32;44.46;37.48;59.64;;
77134;Laerm;25175;50.140;18.990;2024-02-21T19:40:38;44.56;38.65;59.61;;
77134;Laerm;25175;50.140;18.990;2024-02-21T19:43:46;43.67;38.18;62.70;;
77134;Laerm;25175;50.140;18.990;2024-02-21T19:47:20;45.51;37.74;60.24;;
77134;Laerm;25175;50.140;18.990;2024-02-21T19:50:33;42.69;37.95;55.82;;
77134;Laerm;25175;50.140;18.990;2024-02-21T20:01:34;47.51;37.89;61.28;;
77134;Laerm;25175;50.140;18.990;2024-02-21T20:08:59;46.62;38.55;60.38;;
77134;Laerm;25175;50.140;18.990;2024-02-21T20:12:09;45.49;37.95;63.38;;
77134;Laerm;25175;50.140;18.990;2024-02-21T20:15:34;44.08;38.40;59.19;;
77134;Laerm;25175;50.140;18.990;2024-02-21T20:31:35;46.23;38.15;61.60;;
77134;Laerm;25175;50.140;18.990;2024-02-21T20:34:53;43.66;38.53;53.92;;
77134;Laerm;25175;50.140;18.990;2024-02-21T20:38:46;41.17;37.34;48.20;;
77134;Laerm;25175;50.140;18.990;2024-02-21T20:42:48;41.54;38.05;51.00;;
77134;Laerm;25175;50.140;18.990;2024-02-21T20:46:30;42.60;38.07;60.68;;
77134;Laerm;25175;50.140;18.990;2024-02-21T20:49:53;41.85;37.76;54.00;;
77134;Laerm;25175;50.140;18.990;2024-02-21T20:53:16;42.86;37.96;55.34;;
77134;Laerm;25175;50.140;18.990;2024-02-21T21:00:39;42.90;38.50;50.55;;
77134;Laerm;25175;50.140;18.990;2024-02-21T21:04:27;42.19;37.87;56.87;;
77134;Laerm;25175;50.140;18.990;2024-02-21T21:07:39;41.39;37.97;53.57;;
77134;Laerm;25175;50.140;18.990;2024-02-21T21:11:26;44.67;38.36;60.00;;
77134;Laerm;25175;50.140;18.990;2024-02-21T21:15:15;41.34;38.15;45.32;;
77134;Laerm;25175;50.140;18.990;2024-02-21T21:19:24;41.66;37.78;54.71;;
77134;Laerm;25175;50.140;18.990;2024-02-21T21:27:01;42.23;37.69;52.27;;
77134;Laerm;25175;50.140;18.990;2024-02-21T21:30:16;40.83;37.24;49.95;;
77134;Laerm;25175;50.140;18.990;2024-02-21T21:33:28;40.86;37.43;54.48;;
77134;Laerm;25175;50.140;18.990;2024-02-21T21:36:59;41.93;37.16;56.01;;
77134;Laerm;25175;50.140;18.990;2024-02-21T21:40:14;40.42;37.48;46.26;;
77134;Laerm;25175;50.140;18.990;2024-02-21T21:43:38;42.33;37.01;56.34;;
77134;Laerm;25175;50.140;18.990;2024-02-21T21:46:47;39.94;36.55;46.04;;
77134;Laerm;25175;50.140;18.990;2024-02-21T21:50:19;40.64;37.14;49.34;;
77134;Laerm;25175;50.140;18.990;2024-02-21T21:57:12;41.36;36.90;55.09;;
77134;Laerm;25175;50.140;18.990;2024-02-21T22:00:21;41.95;36.63;59.68;;
77134;Laerm;25175;50.140;18.990;2024-02-21T22:03:36;40.46;36.74;53.37;;
77134;Laerm;25175;50.140;18.990;2024-02-21T22:07:32;41.34;36.19;54.44;;
77134;Laerm;25175;50.140;18.990;2024-02-21T22:11:31;41.41;36.60;55.79;;
77134;Laerm;25175;50.140;18.990;2024-02-21T22:19:27;39.11;36.01;49.70;;
77134;Laerm;25175;50.140;18.990;2024-02-21T22:22:58;40.74;36.30;54.39;;
77134;Laerm;25175;50.140;18.990;2024-02-21T22:26:34;39.70;36.27;53.03;;
77134;Laerm;25175;50.140;18.990;2024-02-21T22:39:39;42.17;35.74;56.88;;
77134;Laerm;25175;50.140;18.990;2024-02-21T22:43:05;38.21;35.55;42.24;;
77134;Laerm;25175;50.140;18.990;2024-02-21T22:50:38;37.72;35.20;44.89;;
77134;Laerm;25175;50.140;18.990;2024-02-21T22:54:01;39.93;35.11;52.20;;
77134;Laerm;25175;50.140;18.990;2024-02-21T22:57:46;38.73;35.83;50.21;;
77134;Laerm;25175;50.140;18.990;2024-02-21T23:09:38;40.74;36.44;51.77;;
77134;Laerm;25175;50.140;18.990;2024-02-21T23:13:07;39.89;35.59;48.80;;
77134;Laerm;25175;50.140;18.990;2024-02-21T23:16:38;39.22;35.53;59.01;;
77134;Laerm;25175;50.140;18.990;2024-02-21T23:32:14;41.18;35.62;52.22;;
77134;Laerm;25175;50.140;18.990;2024-02-21T23:36:08;40.87;35.85;55.58;;
77134;Laerm;25175;50.140;18.990;2024-02-21T23:39:18;39.09;36.29;42.79;;
77134;Laerm;25175;50.140;18.990;2024-02-21T23:42:33;39.87;35.99;47.74;;
77134;Laerm;25175;50.140;18.990;2024-02-21T23:45:49;40.95;35.78;56.39;;